< < Back
Terminal Aerodrome Forecast


Current Version              Previous Versions:   1  2  3  4  5  6  7  8  9  

Terminal Aerodrome Forecast

508
FTUS42 KGSP 191700 RRA
TAFHKY
TAF
KHKY 191742Z 1918/2018 09006KT P6SM BKN045
     FM200000 03004KT P6SM BKN035
     FM200600 02004KT 5SM BR BKN035
     FM200900 03003KT 4SM BR OVC015
     FM201500 03004KT P6SM BKN035
     FM201700 04004KT P6SM SCT050=

Latest METAR

253
SAUS70 KWBC 192200 RRA
MTRHKY
METAR KHKY 192153Z AUTO 07006KT 10SM OVC070 23/13 A3018 RMK AO2 SLP201
T02330133


USA.gov is the U.S. government's official web portal to all federal, state and local government web resources and services.